Aérodrome :
LOGIN :

S'inscrire | Disclaimer

   EN    FR    IT 

 










Légende :    VFR   VFR Marginal   IFR   IFR Intensif   IFR Très Intensif
Visi : 
Plafond : 
>= 8 km
>= 3000ft
5 à 8 km
1000 à 3000 ft
1500m à 5 km
500 à 1000 ft
800 à 1500m
200 à 500 ft
< 800m
< 200 ft
Symboles :   Orages  Brouillard  Fortes neiges  Fortes précipitations  Vent > 20 kt
SIGMETs :   Divers  Orages  Givrage  Turbulence  Onde Orograph.  Cendres Volcan.






- Altitude de l'aérodrome : 124 ft
- Code IATA : NHT


EGWU - RAF Northolt

DERNIER METAR :
  • 211850Z 09011KT 5000 HZ BKN007 OVC009 05/03 Q1000 TEMPO 4000 -RA BKN006 RMK GRN TEMPO YLO1

METARs EXPIRÉS :
  • 211750Z 10009KT 5000 HZ BKN007 BKN009 05/03 Q1000 NOSIG RMK GRN GRN
  • 211650Z 10007KT 5000 HZ BKN007 OVC010 05/03 Q1001 TEMPO BKN006 BKN008 RMK GRN TEMPO YLO1

TAF TAF EGWU
Valide du 21 à 18h jusqu'au 22 à 12h UTC


211640Z 2118/2212 11008KT 5000 HZ BKN008
PROB40 2118/2201 BKN006
TEMPO 2119/2201 4000 -RA
BECMG 2201/2203 9999 NSW SCT025
TEMPO 2201/2212 5000 SHRA SCT014



MET'MAP, la Météo Aéronautique d'un coup d'oeil ! - Copyright ORBIFLY Décembre 2007 - Disclaimer

ORBIFLY MET'MAP TEAM :

Programmation & Développement : Alexandra Zaïnal
Conception & Développement : Baudouin d'Aumeries
Co-Programmation & Développement : Marc-Olivier Méhu
Soutien technique & logistique : Manuel Goepfert

Contact : metmap@orbifly.com




SOURCES & CREDITS :

   NOAA